createdAt,value
2023-05-07T00:00:44.842Z,87.93
2023-05-07T00:01:44.846Z,88.13
2023-05-07T00:02:44.852Z,88.24
2023-05-07T00:03:45.004Z,88.04
2023-05-07T00:04:44.817Z,87.73
2023-05-07T00:05:44.804Z,88.13
2023-05-07T00:06:44.760Z,87.84
2023-05-07T00:07:44.748Z,87.43
2023-05-07T00:08:44.762Z,87.93
2023-05-07T00:09:44.735Z,88.04
2023-05-07T00:10:44.711Z,87.93
2023-05-07T00:11:44.796Z,87.84
2023-05-07T00:12:44.737Z,88.18
2023-05-07T00:13:44.697Z,87.93
2023-05-07T00:14:44.700Z,88.59
2023-05-07T00:15:44.684Z,88.65
2023-05-07T00:16:44.719Z,88.04
2023-05-07T00:17:44.738Z,88.24
2023-05-07T00:18:44.673Z,88.24
2023-05-07T00:19:44.650Z,88.65
2023-05-07T00:20:44.642Z,88.54
2023-05-07T00:21:44.641Z,88.69
2023-05-07T00:22:44.605Z,88.79
2023-05-07T00:23:44.596Z,88.79
2023-05-07T00:24:44.591Z,88.24
2023-05-07T00:25:44.582Z,88.44
2023-05-07T00:26:44.582Z,87.93
2023-05-07T00:27:44.634Z,87.93
2023-05-07T00:28:44.555Z,87.84
2023-05-07T00:29:44.537Z,87.93
2023-05-07T00:30:44.524Z,88.34
2023-05-07T00:31:44.585Z,87.93
2023-05-07T00:32:44.526Z,88.04
2023-05-07T00:33:44.498Z,88.34
2023-05-07T00:34:44.525Z,88.13
2023-05-07T00:35:44.487Z,87.93
2023-05-07T00:36:44.491Z,87.93
2023-05-07T00:37:44.483Z,87.63
2023-05-07T00:38:44.447Z,88.04
2023-05-07T00:39:44.442Z,88.44
2023-05-07T00:40:44.435Z,88.54
2023-05-07T00:41:44.418Z,88.54
2023-05-07T00:42:44.423Z,87.98
2023-05-07T00:43:44.470Z,88.85
2023-05-07T00:44:44.394Z,89.66
2023-05-07T00:45:44.438Z,90.01
2023-05-07T00:46:45.374Z,88.54
2023-05-07T00:47:44.400Z,88.13
2023-05-07T00:48:44.324Z,88.39
2023-05-07T00:49:44.338Z,88.75
2023-05-07T00:50:44.337Z,89.87
2023-05-07T00:51:44.322Z,89.70
2023-05-07T00:52:44.302Z,89.81
2023-05-07T00:53:44.300Z,89.70
2023-05-07T00:54:44.292Z,90.01
2023-05-07T00:55:44.299Z,88.65
2023-05-07T00:56:44.309Z,89.09
2023-05-07T00:57:44.248Z,89.00
2023-05-07T00:58:44.348Z,89.00
2023-05-07T00:59:44.316Z,89.09
2023-05-07T01:00:44.223Z,89.09
2023-05-07T01:01:44.253Z,89.61
2023-05-07T01:02:44.345Z,89.70
2023-05-07T01:03:44.236Z,89.50
2023-05-07T01:04:44.267Z,88.79
2023-05-07T01:05:44.184Z,88.69
2023-05-07T01:06:44.167Z,87.84
2023-05-07T01:07:44.177Z,88.69
2023-05-07T01:08:44.164Z,89.61
2023-05-07T01:09:44.152Z,89.75
2023-05-07T01:10:44.131Z,90.36
2023-05-07T01:11:44.108Z,90.01
2023-05-07T01:12:44.116Z,89.61
2023-05-07T01:13:44.112Z,90.11
2023-05-07T01:14:44.093Z,89.91
2023-05-07T01:15:44.220Z,89.91
2023-05-07T01:16:44.094Z,89.85
2023-05-07T01:17:44.099Z,90.25
2023-05-07T01:18:44.090Z,90.31
2023-05-07T01:19:44.061Z,90.16
2023-05-07T01:20:44.038Z,90.01
2023-05-07T01:21:44.020Z,90.22
2023-05-07T01:22:44.050Z,90.31
2023-05-07T01:23:44.021Z,89.81
2023-05-07T01:24:43.990Z,90.11
2023-05-07T01:25:43.989Z,89.95
2023-05-07T01:26:43.967Z,90.01
2023-05-07T01:27:43.976Z,89.91
2023-05-07T01:28:43.970Z,89.95
2023-05-07T01:29:43.937Z,89.85
2023-05-07T01:30:43.934Z,90.01
2023-05-07T01:31:44.225Z,89.81
2023-05-07T01:32:43.977Z,89.91
2023-05-07T01:33:43.906Z,89.91
2023-05-07T01:34:43.888Z,89.81
2023-05-07T01:35:43.873Z,89.91
2023-05-07T01:36:43.880Z,88.59
2023-05-07T01:37:43.874Z,89.91
2023-05-07T01:38:43.868Z,89.85
2023-05-07T01:39:43.860Z,89.64
2023-05-07T01:40:43.826Z,89.81
2023-05-07T01:41:43.815Z,90.05
2023-05-07T01:42:43.804Z,89.75
2023-05-07T01:43:43.778Z,89.70
2023-05-07T01:44:43.760Z,89.91
2023-05-07T01:45:43.764Z,89.95
2023-05-07T01:46:43.797Z,89.54
2023-05-07T01:47:43.780Z,90.77
2023-05-07T01:48:43.741Z,90.36
2023-05-07T01:49:43.721Z,90.01
2023-05-07T01:50:43.723Z,90.16
2023-05-07T01:51:43.720Z,90.46
2023-05-07T01:52:43.744Z,90.05
2023-05-07T01:53:43.692Z,90.36
2023-05-07T01:54:43.666Z,89.95
2023-05-07T01:55:43.702Z,90.46
2023-05-07T01:56:43.680Z,90.05
2023-05-07T01:57:43.647Z,90.25
2023-05-07T01:58:43.642Z,90.25
2023-05-07T01:59:43.603Z,90.25
2023-05-07T02:00:43.604Z,90.16
2023-05-07T02:01:43.651Z,89.99
2023-05-07T02:02:43.724Z,89.38
2023-05-07T02:03:43.653Z,90.16
2023-05-07T02:04:43.559Z,90.25
2023-05-07T02:05:43.568Z,90.36
2023-05-07T02:06:43.558Z,90.40
2023-05-07T02:07:43.526Z,90.50
2023-05-07T02:08:43.522Z,90.46
2023-05-07T02:09:43.525Z,90.70
2023-05-07T02:10:43.543Z,91.31
2023-05-07T02:11:43.487Z,91.22
2023-05-07T02:12:43.537Z,91.36
2023-05-07T02:13:43.483Z,90.70
2023-05-07T02:14:43.476Z,91.31
2023-05-07T02:15:43.486Z,91.01
2023-05-07T02:16:43.471Z,90.50
2023-05-07T02:17:43.488Z,89.59
2023-05-07T02:18:43.432Z,90.40
2023-05-07T02:19:43.494Z,89.89
2023-05-07T02:20:43.433Z,89.53
2023-05-07T02:21:43.392Z,89.79
2023-05-07T02:22:43.398Z,90.03
2023-05-07T02:23:43.386Z,89.94
2023-05-07T02:24:43.394Z,89.63
2023-05-07T02:25:43.369Z,89.83
2023-05-07T02:26:43.359Z,89.73
2023-05-07T02:27:43.364Z,89.94
2023-05-07T02:28:43.334Z,89.83
2023-05-07T02:29:43.345Z,90.14
2023-05-07T02:30:43.344Z,90.03
2023-05-07T02:31:43.311Z,90.75
2023-05-07T02:32:43.350Z,90.85
2023-05-07T02:33:43.273Z,90.20
2023-05-07T02:34:43.287Z,90.03
2023-05-07T02:35:43.340Z,89.94
2023-05-07T02:36:43.250Z,90.40
2023-05-07T02:37:43.251Z,90.24
2023-05-07T02:38:43.234Z,89.83
2023-05-07T02:39:43.252Z,89.94
2023-05-07T02:40:43.237Z,89.42
2023-05-07T02:41:43.307Z,89.63
2023-05-07T02:42:43.173Z,89.73
2023-05-07T02:43:43.196Z,90.24
2023-05-07T02:44:43.186Z,89.94
2023-05-07T02:45:43.192Z,90.18
2023-05-07T02:46:43.131Z,89.63
2023-05-07T02:47:43.182Z,90.34
2023-05-07T02:48:43.132Z,90.24
2023-05-07T02:49:43.627Z,89.83
2023-05-07T02:50:43.146Z,89.73
2023-05-07T02:51:43.180Z,90.38
2023-05-07T02:52:43.111Z,89.77
2023-05-07T02:53:43.087Z,90.18
2023-05-07T02:54:43.081Z,90.28
2023-05-07T02:55:43.051Z,90.08
2023-05-07T02:56:43.023Z,90.38
2023-05-07T02:57:43.052Z,89.97
2023-05-07T02:58:43.032Z,90.28
2023-05-07T02:59:43.009Z,90.28
2023-05-07T03:00:42.991Z,90.48
2023-05-07T03:01:43.060Z,90.69
2023-05-07T03:02:43.025Z,90.59
2023-05-07T03:03:42.991Z,90.79
2023-05-07T03:04:42.971Z,90.79
2023-05-07T03:05:42.937Z,90.59
2023-05-07T03:06:43.959Z,90.69
2023-05-07T03:07:43.002Z,90.63
2023-05-07T03:08:42.921Z,90.69
2023-05-07T03:09:42.922Z,90.38
2023-05-07T03:10:42.947Z,90.18
2023-05-07T03:11:42.911Z,91.20
2023-05-07T03:12:42.928Z,90.89
2023-05-07T03:13:42.875Z,91.20
2023-05-07T03:14:42.866Z,90.59
2023-05-07T03:15:42.888Z,90.38
2023-05-07T03:16:42.872Z,90.48
2023-05-07T03:17:42.840Z,90.89
2023-05-07T03:18:42.892Z,90.99
2023-05-07T03:19:42.811Z,90.18
2023-05-07T03:20:42.821Z,89.97
2023-05-07T03:21:42.801Z,90.28
2023-05-07T03:22:42.792Z,90.08
2023-05-07T03:23:42.821Z,90.28
2023-05-07T03:24:43.756Z,90.28
2023-05-07T03:25:42.751Z,90.59
2023-05-07T03:26:42.759Z,89.87
2023-05-07T03:27:42.738Z,90.38
2023-05-07T03:28:42.738Z,90.14
2023-05-07T03:29:42.694Z,90.08
2023-05-07T03:30:42.706Z,90.03
2023-05-07T03:31:42.707Z,90.03
2023-05-07T03:32:42.703Z,90.24
2023-05-07T03:33:42.679Z,90.69
2023-05-07T03:34:42.658Z,90.79
2023-05-07T03:35:42.654Z,90.89
2023-05-07T03:36:42.623Z,90.69
2023-05-07T03:37:42.602Z,90.79
2023-05-07T03:38:42.635Z,90.89
2023-05-07T03:39:42.685Z,90.79
2023-05-07T03:40:42.598Z,90.89
2023-05-07T03:41:42.569Z,90.89
2023-05-07T03:42:42.581Z,90.38
2023-05-07T03:43:42.558Z,91.50
2023-05-07T03:44:42.560Z,90.99
2023-05-07T03:45:42.562Z,90.89
2023-05-07T03:46:42.567Z,90.99
2023-05-07T03:47:42.534Z,90.69
2023-05-07T03:48:42.518Z,90.79
2023-05-07T03:49:42.514Z,90.12
2023-05-07T03:50:42.539Z,90.99
2023-05-07T03:51:42.490Z,90.94
2023-05-07T03:52:42.514Z,90.59
2023-05-07T03:53:42.461Z,90.08
2023-05-07T03:54:42.446Z,89.81
2023-05-07T03:55:42.508Z,90.69
2023-05-07T03:56:42.426Z,90.38
2023-05-07T03:57:42.407Z,90.59
2023-05-07T03:58:42.413Z,90.08
2023-05-07T03:59:42.398Z,89.00
2023-05-07T04:00:42.378Z,89.87
2023-05-07T04:01:42.451Z,89.92
2023-05-07T04:02:42.542Z,90.08
2023-05-07T04:03:42.416Z,89.61
2023-05-07T04:04:42.345Z,89.77
2023-05-07T04:05:42.335Z,90.08
2023-05-07T04:06:42.357Z,89.36
2023-05-07T04:07:42.317Z,90.18
2023-05-07T04:08:42.313Z,90.32
2023-05-07T04:09:42.290Z,89.81
2023-05-07T04:10:42.279Z,90.22
2023-05-07T04:11:42.295Z,90.12
2023-05-07T04:12:42.278Z,90.12
2023-05-07T04:13:42.264Z,89.92
2023-05-07T04:14:42.229Z,90.12
2023-05-07T04:15:42.225Z,89.92
2023-05-07T04:16:42.283Z,90.12
2023-05-07T04:17:42.258Z,90.12
2023-05-07T04:18:42.223Z,90.01
2023-05-07T04:19:42.200Z,90.63
2023-05-07T04:20:42.179Z,90.01
2023-05-07T04:21:42.182Z,90.42
2023-05-07T04:22:42.177Z,90.47
2023-05-07T04:23:42.141Z,90.53
2023-05-07T04:24:42.175Z,90.77
2023-05-07T04:25:42.123Z,91.28
2023-05-07T04:26:42.122Z,90.94
2023-05-07T04:27:42.108Z,90.88
2023-05-07T04:28:42.123Z,91.18
2023-05-07T04:29:42.081Z,91.49
2023-05-07T04:30:42.067Z,91.59
2023-05-07T04:31:42.146Z,91.18
2023-05-07T04:32:42.111Z,91.03
2023-05-07T04:33:42.036Z,91.03
2023-05-07T04:34:42.023Z,91.03
2023-05-07T04:35:42.028Z,90.73
2023-05-07T04:36:42.047Z,91.14
2023-05-07T04:37:42.001Z,90.94
2023-05-07T04:38:41.997Z,90.88
2023-05-07T04:39:41.978Z,90.98
2023-05-07T04:40:41.976Z,91.03
2023-05-07T04:41:41.985Z,90.98
2023-05-07T04:42:41.948Z,90.88
2023-05-07T04:43:41.944Z,91.24
2023-05-07T04:44:41.916Z,91.14
2023-05-07T04:45:41.964Z,90.94
2023-05-07T04:46:41.913Z,90.22
2023-05-07T04:47:41.933Z,89.92
2023-05-07T04:48:41.894Z,90.94
2023-05-07T04:49:41.862Z,90.48
2023-05-07T04:50:41.893Z,90.22
2023-05-07T04:51:41.849Z,90.32
2023-05-07T04:52:41.845Z,89.92
2023-05-07T04:53:41.840Z,90.01
2023-05-07T04:54:41.866Z,90.12
2023-05-07T04:55:41.818Z,90.63
2023-05-07T04:56:41.814Z,90.94
2023-05-07T04:57:41.789Z,90.94
2023-05-07T04:58:41.779Z,90.32
2023-05-07T04:59:41.807Z,90.53
2023-05-07T05:00:41.783Z,90.32
2023-05-07T05:01:41.781Z,90.12
2023-05-07T05:02:41.798Z,90.06
2023-05-07T05:03:41.772Z,90.12
2023-05-07T05:04:41.749Z,89.92
2023-05-07T05:05:41.732Z,90.98
2023-05-07T05:06:41.715Z,91.14
2023-05-07T05:07:41.788Z,90.42
2023-05-07T05:08:41.722Z,90.57
2023-05-07T05:09:41.708Z,90.77
2023-05-07T05:10:41.670Z,90.77
2023-05-07T05:11:41.637Z,91.14
2023-05-07T05:12:41.655Z,91.08
2023-05-07T05:13:41.658Z,90.88
2023-05-07T05:14:41.606Z,91.39
2023-05-07T05:15:41.759Z,92.00
2023-05-07T05:16:41.756Z,92.10
2023-05-07T05:17:41.664Z,91.28
2023-05-07T05:18:41.606Z,91.55
2023-05-07T05:19:41.573Z,91.55
2023-05-07T05:20:41.576Z,91.03
2023-05-07T05:21:41.569Z,91.14
2023-05-07T05:22:41.591Z,91.14
2023-05-07T05:23:41.543Z,90.98
2023-05-07T05:24:41.542Z,91.24
2023-05-07T05:25:41.522Z,90.88
2023-05-07T05:26:41.487Z,90.98
2023-05-07T05:27:41.505Z,90.94
2023-05-07T05:28:41.477Z,91.49
2023-05-07T05:29:41.473Z,91.35
2023-05-07T05:30:41.442Z,90.88
2023-05-07T05:31:41.521Z,90.63
2023-05-07T05:32:42.468Z,90.42
2023-05-07T05:33:41.441Z,90.63
2023-05-07T05:34:41.458Z,90.42
2023-05-07T05:35:41.388Z,91.03
2023-05-07T05:36:41.439Z,90.83
2023-05-07T05:37:41.406Z,90.63
2023-05-07T05:38:41.387Z,90.18
2023-05-07T05:39:41.395Z,90.08
2023-05-07T05:40:41.352Z,89.81
2023-05-07T05:41:41.375Z,89.77
2023-05-07T05:42:41.349Z,90.01
2023-05-07T05:43:41.313Z,89.16
2023-05-07T05:44:41.341Z,90.08
2023-05-07T05:45:41.300Z,90.01
2023-05-07T05:46:41.356Z,90.12
2023-05-07T05:47:41.302Z,89.06
2023-05-07T05:48:41.272Z,89.92
2023-05-07T05:49:41.260Z,89.92
2023-05-07T05:50:41.252Z,89.77
2023-05-07T05:51:41.265Z,89.00
2023-05-07T05:52:41.219Z,89.20
2023-05-07T05:53:41.235Z,90.18
2023-05-07T05:54:41.258Z,89.36
2023-05-07T05:55:41.279Z,90.12
2023-05-07T05:56:42.446Z,90.01
2023-05-07T05:57:41.210Z,89.81
2023-05-07T05:58:41.241Z,89.92
2023-05-07T05:59:41.152Z,90.01
2023-05-07T06:00:41.212Z,89.77
2023-05-07T06:01:41.178Z,89.57
2023-05-07T06:02:41.229Z,88.96
2023-05-07T06:03:41.184Z,88.96
2023-05-07T06:04:41.147Z,88.85
2023-05-07T06:05:41.156Z,88.04
2023-05-07T06:06:41.074Z,88.14
2023-05-07T06:07:41.080Z,88.45
2023-05-07T06:08:41.067Z,88.24
2023-05-07T06:09:41.044Z,88.34
2023-05-07T06:10:41.067Z,88.24
2023-05-07T06:11:41.023Z,88.20
2023-05-07T06:12:43.913Z,88.24
2023-05-07T06:13:41.045Z,88.45
2023-05-07T06:14:41.025Z,88.31
2023-05-07T06:15:41.536Z,88.00
2023-05-07T06:16:41.090Z,87.90
2023-05-07T06:17:41.049Z,88.31
2023-05-07T06:18:40.949Z,88.00
2023-05-07T06:19:41.126Z,87.18
2023-05-07T06:20:40.919Z,88.51
2023-05-07T06:21:40.914Z,87.49
2023-05-07T06:22:41.860Z,88.10
2023-05-07T06:23:40.929Z,88.31
2023-05-07T06:24:40.899Z,87.14
2023-05-07T06:25:40.867Z,87.75
2023-05-07T06:26:41.864Z,87.45
2023-05-07T06:27:40.869Z,88.16
2023-05-07T06:28:40.882Z,87.75
2023-05-07T06:29:40.856Z,88.46
2023-05-07T06:30:40.842Z,86.83
2023-05-07T06:31:40.852Z,86.90
2023-05-07T06:32:40.833Z,86.53
2023-05-07T06:33:40.807Z,86.80
2023-05-07T06:34:40.779Z,86.08
2023-05-07T06:35:40.853Z,85.98
2023-05-07T06:36:40.760Z,86.90
2023-05-07T06:37:40.753Z,86.39
2023-05-07T06:38:40.769Z,85.68
2023-05-07T06:39:40.744Z,85.58
2023-05-07T06:40:40.740Z,85.31
2023-05-07T06:41:40.715Z,86.29
2023-05-07T06:42:40.721Z,86.43
2023-05-07T06:43:40.693Z,86.63
2023-05-07T06:44:40.677Z,86.02
2023-05-07T06:45:40.685Z,85.51
2023-05-07T06:46:40.788Z,85.55
2023-05-07T06:47:40.674Z,86.37
2023-05-07T06:48:40.633Z,86.83
2023-05-07T06:49:40.610Z,86.83
2023-05-07T06:50:40.624Z,86.33
2023-05-07T06:51:40.796Z,85.41
2023-05-07T06:52:40.596Z,85.61
2023-05-07T06:53:40.580Z,85.75
2023-05-07T06:54:40.569Z,86.63
2023-05-07T06:55:40.554Z,86.94
2023-05-07T06:56:40.550Z,86.80
2023-05-07T06:57:40.550Z,85.27
2023-05-07T06:58:40.515Z,84.86
2023-05-07T06:59:40.505Z,84.90
2023-05-07T07:00:40.518Z,84.80
2023-05-07T07:01:40.618Z,85.61
2023-05-07T07:02:40.575Z,84.66
2023-05-07T07:03:40.467Z,85.58
2023-05-07T07:04:40.474Z,85.37
2023-05-07T07:05:40.438Z,85.03
2023-05-07T07:06:40.435Z,84.01
2023-05-07T07:07:40.431Z,84.21
2023-05-07T07:08:40.409Z,84.52
2023-05-07T07:09:40.388Z,83.97
2023-05-07T07:10:40.402Z,83.29
2023-05-07T07:11:40.388Z,83.70
2023-05-07T07:12:40.377Z,85.03
2023-05-07T07:13:40.355Z,83.70
2023-05-07T07:14:40.342Z,83.81
2023-05-07T07:15:40.385Z,83.87
2023-05-07T07:16:40.338Z,83.36
2023-05-07T07:17:40.324Z,83.76
2023-05-07T07:18:40.306Z,84.13
2023-05-07T07:19:40.272Z,83.53
2023-05-07T07:20:40.286Z,82.17
2023-05-07T07:21:40.286Z,81.70
2023-05-07T07:22:40.260Z,81.79
2023-05-07T07:23:40.483Z,82.24
2023-05-07T07:24:40.259Z,82.34
2023-05-07T07:25:40.258Z,82.75
2023-05-07T07:26:40.192Z,82.89
2023-05-07T07:27:40.253Z,82.75
2023-05-07T07:28:40.194Z,82.34
2023-05-07T07:29:40.178Z,82.65
2023-05-07T07:30:40.174Z,82.65
2023-05-07T07:31:40.168Z,82.75
2023-05-07T07:32:40.170Z,83.06
2023-05-07T07:33:40.149Z,82.10
2023-05-07T07:34:40.126Z,82.65
2023-05-07T07:35:40.132Z,82.31
2023-05-07T07:36:46.116Z,81.59
2023-05-07T07:37:42.095Z,82.31
2023-05-07T07:38:40.092Z,81.79
2023-05-07T07:39:40.294Z,82.51
2023-05-07T07:40:40.064Z,82.61
2023-05-07T07:41:40.047Z,82.81
2023-05-07T07:42:40.075Z,81.45
2023-05-07T07:43:40.032Z,81.39
2023-05-07T07:44:40.040Z,81.29
2023-05-07T07:45:41.172Z,81.39
2023-05-07T07:46:41.025Z,81.53
2023-05-07T07:47:40.065Z,81.79
2023-05-07T07:48:39.987Z,81.53
2023-05-07T07:49:39.976Z,82.00
2023-05-07T07:50:45.436Z,82.00
2023-05-07T07:51:41.964Z,80.88
2023-05-07T07:52:39.948Z,80.84
2023-05-07T07:53:39.931Z,80.33
2023-05-07T07:54:39.920Z,81.31
2023-05-07T07:55:39.966Z,80.26
2023-05-07T07:56:39.910Z,79.96
2023-05-07T07:57:39.876Z,78.91
2023-05-07T07:58:39.875Z,78.40
2023-05-07T07:59:39.893Z,78.40
2023-05-07T08:00:39.843Z,77.89
2023-05-07T08:01:39.949Z,79.38
2023-05-07T08:02:39.903Z,78.36
2023-05-07T08:03:40.043Z,78.46
2023-05-07T08:04:39.926Z,78.66
2023-05-07T08:05:39.805Z,77.65
2023-05-07T08:06:39.779Z,77.25
2023-05-07T08:07:39.801Z,77.65
2023-05-07T08:08:39.820Z,77.51
2023-05-07T08:09:39.755Z,76.09
2023-05-07T08:10:39.751Z,77.61
2023-05-07T08:11:39.914Z,79.10
2023-05-07T08:12:39.769Z,77.54
2023-05-07T08:13:39.737Z,76.16
2023-05-07T08:14:39.736Z,76.23
2023-05-07T08:15:39.680Z,76.29
2023-05-07T08:16:39.709Z,75.85
2023-05-07T08:17:39.777Z,73.72
2023-05-07T08:18:39.670Z,73.93
2023-05-07T08:19:39.667Z,73.49
2023-05-07T08:20:39.651Z,73.63
2023-05-07T08:21:39.662Z,72.21
2023-05-07T08:22:39.668Z,73.63
2023-05-07T08:23:39.624Z,74.43
2023-05-07T08:24:39.602Z,74.13
2023-05-07T08:25:39.593Z,74.90
2023-05-07T08:26:39.618Z,73.79
2023-05-07T08:27:39.688Z,72.72
2023-05-07T08:28:39.560Z,72.58
2023-05-07T08:29:39.549Z,72.21
2023-05-07T08:30:39.552Z,73.72
2023-05-07T08:31:39.537Z,74.19
2023-05-07T08:32:39.580Z,72.99
2023-05-07T08:33:39.531Z,75.07
2023-05-07T08:34:39.512Z,72.04
2023-05-07T08:35:39.527Z,72.81
2023-05-07T08:36:39.498Z,73.49
2023-05-07T08:37:39.480Z,69.82
2023-05-07T08:38:39.472Z,70.02
2023-05-07T08:39:39.452Z,70.89
2023-05-07T08:40:39.439Z,70.06
2023-05-07T08:41:39.421Z,69.75
2023-05-07T08:42:39.405Z,68.14
2023-05-07T08:43:39.418Z,68.48
2023-05-07T08:44:39.380Z,69.35
2023-05-07T08:45:39.401Z,69.95
2023-05-07T08:46:39.445Z,69.95
2023-05-07T08:47:39.403Z,70.86
2023-05-07T08:48:39.376Z,69.55
2023-05-07T08:49:39.346Z,70.46
2023-05-07T08:50:39.347Z,70.69
2023-05-07T08:51:39.315Z,71.77
2023-05-07T08:52:39.305Z,69.98
2023-05-07T08:53:39.286Z,69.89
2023-05-07T08:54:39.301Z,69.78
2023-05-07T08:55:39.302Z,71.17
2023-05-07T08:56:39.270Z,69.45
2023-05-07T08:57:40.158Z,70.96
2023-05-07T08:58:40.241Z,69.85
2023-05-07T08:59:39.307Z,70.15
2023-05-07T09:00:39.216Z,69.52
2023-05-07T09:01:39.258Z,69.01
2023-05-07T09:02:39.236Z,70.12
2023-05-07T09:03:39.221Z,71.23
2023-05-07T09:04:39.181Z,70.09
2023-05-07T09:05:39.184Z,69.11
2023-05-07T09:06:39.173Z,70.62
2023-05-07T09:07:39.170Z,69.62
2023-05-07T09:08:39.149Z,69.72
2023-05-07T09:09:39.141Z,69.52
2023-05-07T09:10:39.103Z,68.88
2023-05-07T09:11:39.095Z,70.49
2023-05-07T09:12:39.126Z,68.85
2023-05-07T09:13:39.074Z,68.34
2023-05-07T09:14:39.053Z,68.41
2023-05-07T09:15:39.054Z,69.35
2023-05-07T09:16:39.143Z,67.54
2023-05-07T09:17:39.097Z,68.14
2023-05-07T09:18:39.037Z,69.21
2023-05-07T09:19:39.021Z,70.73
2023-05-07T09:20:39.007Z,68.81
2023-05-07T09:21:38.995Z,67.07
2023-05-07T09:22:38.979Z,68.88
2023-05-07T09:23:38.998Z,68.85
2023-05-07T09:24:38.994Z,69.29
2023-05-07T09:25:38.955Z,67.68
2023-05-07T09:26:38.992Z,66.56
2023-05-07T09:27:38.951Z,67.07
2023-05-07T09:28:38.942Z,65.56
2023-05-07T09:29:38.908Z,67.47
2023-05-07T09:30:38.914Z,67.44
2023-05-07T09:31:39.078Z,66.94
2023-05-07T09:32:38.991Z,68.04
2023-05-07T09:33:38.887Z,67.44
2023-05-07T09:34:38.869Z,69.76
2023-05-07T09:35:38.903Z,66.77
2023-05-07T09:36:38.850Z,66.77
2023-05-07T09:37:38.855Z,67.61
2023-05-07T09:38:38.826Z,66.98
2023-05-07T09:39:38.817Z,64.17
2023-05-07T09:40:38.816Z,63.17
2023-05-07T09:41:38.838Z,64.77
2023-05-07T09:42:38.817Z,66.85
2023-05-07T09:43:38.804Z,64.61
2023-05-07T09:44:38.785Z,62.60
2023-05-07T09:45:38.793Z,62.37
2023-05-07T09:46:38.779Z,62.17
2023-05-07T09:47:38.937Z,63.04
2023-05-07T09:48:38.742Z,61.07
2023-05-07T09:49:38.744Z,62.27
2023-05-07T09:50:38.719Z,62.67
2023-05-07T09:51:38.712Z,64.07
2023-05-07T09:52:38.692Z,62.37
2023-05-07T09:53:38.694Z,61.97
2023-05-07T09:54:38.695Z,61.87
2023-05-07T09:55:38.688Z,61.44
2023-05-07T09:56:38.672Z,61.21
2023-05-07T09:57:38.646Z,61.21
2023-05-07T09:58:38.633Z,60.58
2023-05-07T09:59:38.626Z,60.55
2023-05-07T10:00:38.636Z,61.02
2023-05-07T10:01:38.688Z,61.35
2023-05-07T10:02:38.678Z,61.68
2023-05-07T10:03:39.857Z,60.38
2023-05-07T10:04:38.571Z,60.18
2023-05-07T10:05:38.607Z,59.88
2023-05-07T10:06:38.581Z,59.70
2023-05-07T10:07:38.571Z,62.74
2023-05-07T10:08:38.622Z,62.94
2023-05-07T10:09:38.572Z,63.57
2023-05-07T10:10:38.597Z,62.54
2023-05-07T10:11:38.526Z,61.97
2023-05-07T10:12:38.585Z,61.40
2023-05-07T10:13:38.496Z,61.52
2023-05-07T10:14:38.501Z,62.80
2023-05-07T10:15:38.487Z,63.33
2023-05-07T10:16:38.473Z,62.57
2023-05-07T10:17:38.520Z,60.77
2023-05-07T10:18:38.492Z,62.84
2023-05-07T10:19:38.569Z,60.81
2023-05-07T10:20:38.455Z,61.24
2023-05-07T10:21:38.425Z,61.27
2023-05-07T10:22:38.403Z,63.50
2023-05-07T10:23:38.401Z,63.87
2023-05-07T10:24:38.424Z,62.98
2023-05-07T10:25:38.391Z,59.92
2023-05-07T10:26:38.389Z,58.09
2023-05-07T10:27:38.363Z,59.82
2023-05-07T10:28:38.470Z,61.48
2023-05-07T10:29:38.392Z,63.72
2023-05-07T10:30:38.687Z,59.39
2023-05-07T10:31:38.383Z,61.26
2023-05-07T10:32:38.406Z,58.14
2023-05-07T10:33:38.345Z,57.91
2023-05-07T10:34:38.319Z,57.28
2023-05-07T10:35:38.377Z,58.26
2023-05-07T10:36:38.651Z,59.09
2023-05-07T10:37:39.278Z,59.30
2023-05-07T10:38:38.263Z,59.85
2023-05-07T10:39:38.252Z,61.08
2023-05-07T10:40:38.230Z,61.31
2023-05-07T10:41:38.331Z,61.94
2023-05-07T10:42:38.213Z,62.11
2023-05-07T10:43:38.215Z,62.34
2023-05-07T10:44:38.245Z,62.14
2023-05-07T10:45:38.227Z,62.54
2023-05-07T10:46:39.014Z,60.38
2023-05-07T10:47:38.236Z,60.48
2023-05-07T10:48:38.192Z,60.58
2023-05-07T10:49:38.165Z,61.98
2023-05-07T10:50:38.228Z,60.95
2023-05-07T10:51:38.180Z,59.38
2023-05-07T10:52:38.165Z,61.84
2023-05-07T10:53:38.138Z,65.15
2023-05-07T10:54:38.144Z,61.85
2023-05-07T10:55:38.120Z,59.06
2023-05-07T10:56:38.120Z,57.28
2023-05-07T10:57:38.112Z,57.86
2023-05-07T10:58:38.070Z,55.80
2023-05-07T10:59:38.087Z,55.18
2023-05-07T11:00:39.428Z,54.66
2023-05-07T11:01:39.173Z,54.24
2023-05-07T11:02:38.053Z,54.73
2023-05-07T11:03:38.016Z,51.05
2023-05-07T11:04:38.036Z,51.95
2023-05-07T11:05:38.726Z,53.61
2023-05-07T11:06:38.997Z,52.32
2023-05-07T11:07:38.068Z,54.68
2023-05-07T11:08:37.960Z,51.03
2023-05-07T11:09:37.960Z,51.54
2023-05-07T11:10:37.938Z,51.79
2023-05-07T11:11:38.159Z,55.21
2023-05-07T11:12:38.148Z,53.91
2023-05-07T11:13:37.935Z,55.93
2023-05-07T11:14:37.920Z,55.33
2023-05-07T11:15:37.919Z,54.66
2023-05-07T11:16:38.178Z,54.09
2023-05-07T11:17:37.906Z,56.41
2023-05-07T11:18:37.864Z,56.18
2023-05-07T11:19:37.846Z,58.21
2023-05-07T11:20:37.912Z,55.94
2023-05-07T11:21:37.934Z,55.64
2023-05-07T11:22:37.816Z,56.27
2023-05-07T11:23:37.887Z,57.76
2023-05-07T11:24:37.804Z,58.59
2023-05-07T11:25:37.809Z,57.02
2023-05-07T11:26:37.791Z,58.22
2023-05-07T11:27:37.753Z,58.92
2023-05-07T11:28:37.765Z,58.25
2023-05-07T11:29:37.756Z,58.85
2023-05-07T11:30:37.822Z,58.15
2023-05-07T11:31:37.778Z,58.15
2023-05-07T11:32:37.724Z,58.92
2023-05-07T11:33:37.722Z,59.05
2023-05-07T11:34:37.702Z,60.65
2023-05-07T11:35:39.187Z,59.62
2023-05-07T11:36:37.692Z,58.22
2023-05-07T11:37:37.675Z,57.82
2023-05-07T11:38:37.672Z,59.22
2023-05-07T11:39:37.750Z,58.09
2023-05-07T11:40:37.656Z,57.50
2023-05-07T11:41:37.630Z,57.59
2023-05-07T11:42:37.652Z,57.97
2023-05-07T11:43:37.658Z,58.76
2023-05-07T11:44:37.785Z,57.09
2023-05-07T11:45:37.645Z,58.00
2023-05-07T11:46:37.578Z,57.89
2023-05-07T11:47:37.678Z,57.69
2023-05-07T11:48:37.576Z,58.59
2023-05-07T11:49:37.578Z,58.12
2023-05-07T11:50:37.554Z,58.35
2023-05-07T11:51:37.533Z,59.05
2023-05-07T11:52:37.527Z,58.02
2023-05-07T11:53:37.497Z,58.05
2023-05-07T11:54:37.525Z,58.52
2023-05-07T11:55:37.524Z,58.29
2023-05-07T11:56:37.495Z,57.34
2023-05-07T11:57:37.476Z,56.34
2023-05-07T11:58:37.497Z,55.94
2023-05-07T11:59:37.500Z,57.21
2023-05-07T12:00:37.437Z,55.99
2023-05-07T12:01:37.426Z,54.32
2023-05-07T12:02:37.473Z,55.11
2023-05-07T12:03:37.492Z,54.32
2023-05-07T12:04:37.461Z,55.54
2023-05-07T12:05:37.402Z,55.54
2023-05-07T12:06:37.382Z,56.51
2023-05-07T12:07:37.403Z,54.86
2023-05-07T12:08:37.377Z,54.96
2023-05-07T12:09:38.359Z,55.24
2023-05-07T12:10:37.397Z,54.04
2023-05-07T12:11:37.327Z,55.41
2023-05-07T12:12:37.342Z,52.84
2023-05-07T12:13:37.354Z,54.11
2023-05-07T12:14:37.446Z,53.91
2023-05-07T12:15:37.290Z,53.91
2023-05-07T12:16:37.304Z,52.22
2023-05-07T12:17:37.332Z,54.58
2023-05-07T12:18:37.262Z,53.02
2023-05-07T12:19:37.263Z,52.99
2023-05-07T12:20:37.248Z,55.18
2023-05-07T12:21:37.223Z,52.67
2023-05-07T12:22:37.224Z,52.99
2023-05-07T12:23:37.211Z,52.79
2023-05-07T12:24:37.223Z,52.12
2023-05-07T12:25:37.207Z,52.72
2023-05-07T12:26:37.161Z,53.91
2023-05-07T12:27:37.172Z,52.32
2023-05-07T12:28:37.187Z,52.32
2023-05-07T12:29:37.152Z,53.52
2023-05-07T12:30:37.183Z,52.87
2023-05-07T12:31:37.181Z,52.25
2023-05-07T12:32:37.143Z,53.04
2023-05-07T12:33:37.307Z,53.06
2023-05-07T12:34:37.088Z,53.84
2023-05-07T12:35:37.085Z,53.04
2023-05-07T12:36:37.094Z,53.54
2023-05-07T12:37:37.057Z,53.04
2023-05-07T12:38:37.050Z,54.24
2023-05-07T12:39:37.057Z,52.32
2023-05-07T12:40:37.058Z,52.32
2023-05-07T12:41:37.148Z,53.06
2023-05-07T12:42:37.052Z,53.24
2023-05-07T12:43:37.026Z,51.62
2023-05-07T12:44:37.007Z,50.73
2023-05-07T12:45:36.985Z,51.72
2023-05-07T12:46:37.033Z,51.10
2023-05-07T12:47:37.053Z,52.79
2023-05-07T12:48:37.029Z,53.49
2023-05-07T12:49:36.985Z,52.12
2023-05-07T12:50:36.976Z,53.99
2023-05-07T12:51:36.977Z,53.04
2023-05-07T12:52:36.923Z,50.35